Time;durP1;ratioP1;P1;durP2;ratioP2;P2;SDS_P1;SDS_P2;PMS_P1;PMS_P2;Temp;Humidity;BMP_temperature;BMP_pressure;BME280_temperature;BME280_humidity;BME280_pressure;Samples;Min_cycle;Max_cycle;Signal;HPM_P1;HPM_P2
2022/11/05 00:11:16;;;;;;;5.25;4.75;;;5.70;99.90;;;;;;5044115;28;20040;-53
2022/11/05 00:16:43;;;;;;;9.10;5.18;;;5.70;99.90;;;;;;5041789;28;20091;-54
2022/11/05 00:19:09;;;;;;;7.15;6.40;;;5.70;99.90;;;;;;5042082;28;20033;-53
2022/11/05 00:27:07;;;;;;;6.13;5.53;;;5.80;99.90;;;;;;5041771;28;20048;-53
2022/11/05 00:29:33;;;;;;;5.68;5.18;;;5.70;99.90;;;;;;5043053;28;20029;-55
2022/11/05 00:31:58;;;;;;;7.47;5.30;;;5.70;99.90;;;;;;5042411;28;20029;-55
2022/11/05 00:34:24;;;;;;;6.25;5.40;;;5.70;99.90;;;;;;5041015;28;20389;-53
2022/11/05 00:36:50;;;;;;;6.80;6.10;;;5.70;99.90;;;;;;5049153;28;20540;-54
2022/11/05 00:39:15;;;;;;;8.95;7.22;;;5.60;99.90;;;;;;5052522;28;20021;-51
2022/11/05 00:41:41;;;;;;;9.65;5.93;;;5.60;99.90;;;;;;5052373;28;20467;-52
2022/11/05 00:49:28;;;;;;;12.55;6.50;;;5.60;99.90;;;;;;5072192;28;20083;-54
2022/11/05 00:49:39;;;;;;;6.07;5.47;;;5.70;99.90;;;;;;5071987;28;20502;-54
2022/11/05 00:54:49;;;;;;;6.38;5.43;;;5.70;99.90;;;;;;5072346;28;20038;-53
2022/11/05 00:57:14;;;;;;;7.57;5.65;;;5.70;99.90;;;;;;5071959;28;20032;-53
2022/11/05 00:59:40;;;;;;;6.05;4.72;;;5.70;99.90;;;;;;5071803;28;20029;-54
2022/11/05 01:02:06;;;;;;;7.95;5.30;;;5.70;99.90;;;;;;5071914;28;20016;-55
2022/11/05 01:04:31;;;;;;;5.47;4.65;;;5.80;99.90;;;;;;5071834;28;20027;-54
2022/11/05 01:06:57;;;;;;;5.03;4.53;;;5.80;99.90;;;;;;5070656;28;20083;-54
2022/11/05 01:09:22;;;;;;;7.47;5.10;;;5.80;99.90;;;;;;5071667;28;20132;-53
2022/11/05 01:11:50;;;;;;;5.35;4.93;;;5.80;99.90;;;;;;5071827;28;20108;-53
2022/11/05 01:14:15;;;;;;;15.50;5.35;;;5.80;99.90;;;;;;5071593;28;20119;-54
2022/11/05 01:16:41;;;;;;;4.90;4.50;;;5.80;99.90;;;;;;5071498;28;20107;-55
2022/11/05 01:19:09;;;;;;;5.35;4.82;;;5.90;99.90;;;;;;5071706;28;20089;-54
2022/11/05 01:21:35;;;;;;;7.45;4.32;;;5.90;99.90;;;;;;5071623;28;20055;-54
2022/11/05 01:24:02;;;;;;;4.95;4.55;;;6.00;99.90;;;;;;5071715;28;20025;-56
2022/11/05 01:26:28;;;;;;;5.57;4.50;;;5.90;99.90;;;;;;5071452;28;20157;-52
2022/11/05 01:28:55;;;;;;;7.95;4.65;;;5.90;99.90;;;;;;5071857;28;20028;-52
2022/11/05 01:31:22;;;;;;;7.47;4.82;;;5.80;99.90;;;;;;5071510;28;20020;-54
2022/11/05 01:33:48;;;;;;;6.22;5.50;;;5.80;99.90;;;;;;5071532;28;21003;-55
2022/11/05 01:36:14;;;;;;;7.13;5.05;;;5.80;99.90;;;;;;5071467;28;20463;-52
2022/11/05 01:38:39;;;;;;;5.72;5.13;;;5.70;99.90;;;;;;5070564;28;20093;-51
2022/11/05 01:41:06;;;;;;;6.95;5.20;;;5.60;99.90;;;;;;5071802;28;20396;-54
2022/11/05 01:43:46;;;;;;;8.20;4.30;;;5.50;99.90;;;;;;5071423;28;20024;-55
2022/11/05 01:46:11;;;;;;;5.00;4.50;;;5.40;99.90;;;;;;5071445;28;20025;-51
2022/11/05 01:48:38;;;;;;;5.32;4.82;;;5.40;99.90;;;;;;5071210;28;20097;-56
2022/11/05 01:51:11;;;;;;;6.13;5.50;;;5.40;99.90;;;;;;5071456;28;20017;-55
2022/11/05 01:53:43;;;;;;;7.88;4.72;;;5.30;99.90;;;;;;5071200;28;20032;-54
2022/11/05 01:56:31;;;;;;;4.80;4.40;;;5.20;99.90;;;;;;5071484;28;20029;-53
2022/11/05 01:59:09;;;;;;;6.15;5.47;;;5.10;99.90;;;;;;5071052;28;20062;-52
2022/11/05 02:01:35;;;;;;;5.43;4.65;;;5.10;99.90;;;;;;5071190;28;20054;-52
2022/11/05 02:04:06;;;;;;;5.15;4.60;;;5.20;99.90;;;;;;5071118;28;20428;-52
2022/11/05 02:06:36;;;;;;;6.50;4.82;;;5.20;99.90;;;;;;5071095;28;20025;-53
2022/11/05 02:09:04;;;;;;;5.88;5.10;;;5.30;99.90;;;;;;5069796;28;20055;-56
2022/11/05 02:11:30;;;;;;;5.97;4.82;;;5.30;99.90;;;;;;5071128;28;20020;-52
2022/11/05 02:13:56;;;;;;;5.88;5.28;;;5.40;99.90;;;;;;5070502;28;20017;-52
2022/11/05 02:16:43;;;;;;;5.90;4.57;;;5.30;99.90;;;;;;5068730;28;20110;-57
2022/11/05 02:19:31;;;;;;;7.03;4.57;;;5.30;99.90;;;;;;5050568;28;20025;-54
2022/11/05 02:22:08;;;;;;;5.15;4.65;;;5.40;99.90;;;;;;5050395;28;20698;-55
2022/11/05 02:24:59;;;;;;;5.57;5.07;;;5.30;99.90;;;;;;5050156;28;20025;-54
2022/11/05 02:27:55;;;;;;;6.25;5.00;;;5.30;99.90;;;;;;5050109;28;20374;-55
2022/11/05 02:30:48;;;;;;;5.88;5.10;;;5.40;99.90;;;;;;5050654;28;20033;-53
2022/11/05 02:33:55;;;;;;;5.70;5.13;;;5.40;99.90;;;;;;5067844;28;20029;-53
2022/11/05 02:36:27;;;;;;;6.15;5.47;;;5.40;99.90;;;;;;5070736;28;20020;-52
2022/11/05 02:39:10;;;;;;;6.45;5.28;;;5.40;99.90;;;;;;5071100;28;20460;-55
2022/11/05 02:41:47;;;;;;;7.37;4.80;;;5.40;99.90;;;;;;5070708;28;20083;-53
2022/11/05 02:45:11;;;;;;;5.45;4.95;;;5.50;99.90;;;;;;5070962;28;20032;-54
2022/11/05 02:48:02;;;;;;;5.18;4.70;;;5.50;99.90;;;;;;4969268;28;20043;-54
2022/11/05 02:50:37;;;;;;;4.97;4.47;;;5.50;99.90;;;;;;4936776;28;20050;-52
2022/11/05 02:53:13;;;;;;;6.35;5.15;;;5.60;99.90;;;;;;5044172;28;20186;-56
2022/11/05 02:55:46;;;;;;;5.40;4.60;;;5.60;99.90;;;;;;5072836;28;20040;-54
2022/11/05 02:58:11;;;;;;;6.10;5.10;;;5.60;99.90;;;;;;5074412;28;20467;-54
2022/11/05 03:00:51;;;;;;;5.03;4.15;;;5.60;99.90;;;;;;5074130;28;20046;-53
2022/11/05 03:03:21;;;;;;;6.05;4.95;;;5.60;99.90;;;;;;5074408;28;20029;-56
2022/11/05 03:06:03;;;;;;;7.18;4.60;;;5.70;99.90;;;;;;5074266;28;20050;-55
2022/11/05 03:08:49;;;;;;;4.82;4.43;;;5.70;99.90;;;;;;5073915;28;20073;-53
2022/11/05 03:11:18;;;;;;;5.47;4.80;;;5.70;99.90;;;;;;5074373;28;20467;-54
2022/11/05 03:13:51;;;;;;;4.78;4.38;;;5.70;99.90;;;;;;5073816;28;20032;-54
2022/11/05 03:16:38;;;;;;;5.20;4.68;;;5.70;99.90;;;;;;5074049;28;20052;-53
2022/11/05 03:19:15;;;;;;;5.72;4.22;;;5.70;99.90;;;;;;5073969;28;20025;-53
2022/11/05 03:21:47;;;;;;;12.82;6.43;;;5.70;99.90;;;;;;5072587;28;20028;-53
2022/11/05 03:24:22;;;;;;;10.10;6.63;;;5.70;99.90;;;;;;5071901;28;20019;-52
2022/11/05 03:27:09;;;;;;;8.93;5.72;;;5.70;99.90;;;;;;5073964;28;20127;-54
2022/11/05 03:29:46;;;;;;;13.48;7.57;;;5.70;99.90;;;;;;5073726;28;20024;-52
2022/11/05 03:32:14;;;;;;;16.75;9.35;;;5.90;99.90;;;;;;5073725;28;20028;-54
2022/11/05 03:34:48;;;;;;;6.05;4.32;;;6.00;99.90;;;;;;5073487;28;20016;-53
2022/11/05 03:37:17;;;;;;;10.00;4.93;;;6.00;99.90;;;;;;5073651;28;20025;-53
2022/11/05 03:39:49;;;;;;;10.52;4.75;;;6.00;99.90;;;;;;5073500;28;20099;-54
2022/11/05 03:42:19;;;;;;;7.85;5.03;;;5.90;99.90;;;;;;5073559;28;20407;-52
2022/11/05 03:44:51;;;;;;;8.10;5.43;;;5.80;99.90;;;;;;5073628;28;20021;-54
2022/11/05 03:47:40;;;;;;;5.10;4.60;;;5.80;99.90;;;;;;5073475;28;20028;-52
2022/11/05 03:50:21;;;;;;;4.82;4.43;;;5.80;99.90;;;;;;5073275;28;20447;-55
2022/11/05 03:52:58;;;;;;;5.32;3.40;;;5.70;99.90;;;;;;5073463;28;20023;-52
2022/11/05 03:55:41;;;;;;;4.00;3.58;;;5.90;99.90;;;;;;5073202;28;20025;-52
2022/11/05 03:58:08;;;;;;;3.67;3.37;;;5.90;99.90;;;;;;5073545;28;20487;-55
2022/11/05 04:00:34;;;;;;;4.80;3.28;;;5.90;99.90;;;;;;5073058;28;20032;-53
2022/11/05 04:03:00;;;;;;;5.72;3.38;;;5.80;99.90;;;;;;5072319;28;20407;-53
2022/11/05 04:05:25;;;;;;;3.65;3.35;;;5.80;99.90;;;;;;5072758;28;20036;-52
2022/11/05 04:13:25;;;;;;;6.40;3.50;;;5.90;99.90;;;;;;5072851;28;20545;-54
2022/11/05 04:18:36;;;;;;;6.95;4.60;;;5.90;99.90;;;;;;5072786;28;20059;-51
2022/11/05 04:26:33;;;;;;;3.10;2.80;;;5.90;99.90;;;;;;5072822;28;20039;-53
2022/11/05 04:31:42;;;;;;;4.85;4.10;;;5.90;99.90;;;;;;5072539;28;20490;-52
2022/11/05 04:34:08;;;;;;;3.80;3.50;;;5.90;99.90;;;;;;5072241;28;20029;-52
2022/11/05 04:36:34;;;;;;;2.83;2.55;;;5.90;99.90;;;;;;5072398;28;20028;-55
2022/11/05 04:38:59;;;;;;;3.00;2.80;;;5.80;99.90;;;;;;5072229;28;20027;-55
2022/11/05 04:41:31;;;;;;;3.78;2.83;;;5.80;99.90;;;;;;5072291;28;20392;-52
2022/11/05 04:43:56;;;;;;;3.38;2.35;;;5.80;99.90;;;;;;5072510;28;20369;-55
2022/11/05 04:46:22;;;;;;;2.63;2.42;;;5.90;99.90;;;;;;5072096;28;20073;-53
2022/11/05 04:48:47;;;;;;;2.20;2.05;;;6.00;99.90;;;;;;5072111;28;20029;-52
2022/11/05 04:51:13;;;;;;;2.53;2.35;;;6.00;99.90;;;;;;5072303;28;20024;-56
2022/11/05 04:53:39;;;;;;;2.50;2.30;;;6.00;99.90;;;;;;5072080;28;20024;-53
2022/11/05 04:56:09;;;;;;;2.60;2.10;;;6.00;99.90;;;;;;5070883;28;20032;-53
2022/11/05 04:58:38;;;;;;;2.78;2.45;;;6.00;99.90;;;;;;5071956;28;20044;-54
2022/11/05 05:01:04;;;;;;;3.50;3.03;;;6.00;99.90;;;;;;5072082;28;20056;-54
2022/11/05 05:03:29;;;;;;;2.83;2.60;;;5.90;99.90;;;;;;5071743;28;20055;-57
2022/11/05 05:05:58;;;;;;;4.15;3.38;;;5.90;99.90;;;;;;5072045;28;20126;-53
2022/11/05 05:08:24;;;;;;;4.55;3.90;;;6.00;99.90;;;;;;5071650;28;20040;-56
2022/11/05 05:10:49;;;;;;;3.40;2.90;;;6.10;99.90;;;;;;5072063;28;20024;-52
2022/11/05 05:13:15;;;;;;;3.35;2.90;;;6.10;99.90;;;;;;5071808;28;20020;-53
2022/11/05 05:15:40;;;;;;;2.90;2.53;;;6.10;99.90;;;;;;5071579;28;20012;-55
2022/11/05 05:18:08;;;;;;;3.78;2.55;;;6.10;99.90;;;;;;5071744;28;20107;-54
2022/11/05 05:23:17;;;;;;;4.25;2.28;;;6.10;99.90;;;;;;5071673;28;20039;-55
2022/11/05 05:25:43;;;;;;;2.42;2.22;;;6.10;99.90;;;;;;5071677;28;20029;-52
2022/11/05 05:28:09;;;;;;;2.47;2.28;;;6.10;99.90;;;;;;5071732;28;20357;-52
2022/11/05 05:30:34;;;;;;;2.65;2.45;;;6.00;99.90;;;;;;5071545;28;20024;-52
2022/11/05 05:33:02;;;;;;;2.47;2.28;;;6.00;99.90;;;;;;5071422;28;20032;-53
2022/11/05 05:35:28;;;;;;;3.17;2.70;;;6.00;99.90;;;;;;5071369;28;20035;-55
2022/11/05 05:37:56;;;;;;;2.70;2.10;;;5.90;99.90;;;;;;5071611;28;20367;-54
2022/11/05 05:40:22;;;;;;;4.10;2.55;;;5.80;99.90;;;;;;5071467;28;20052;-52
2022/11/05 05:42:54;;;;;;;3.80;2.50;;;5.80;99.90;;;;;;5071439;28;20074;-56
2022/11/05 05:45:19;;;;;;;3.55;2.78;;;5.80;99.90;;;;;;5071355;28;20411;-53
2022/11/05 05:47:45;;;;;;;2.97;2.78;;;5.80;99.90;;;;;;5071458;28;20032;-54
2022/11/05 05:50:11;;;;;;;3.63;2.47;;;5.70;99.90;;;;;;5071531;28;20036;-55
2022/11/05 05:52:36;;;;;;;2.75;2.55;;;5.70;99.90;;;;;;5071261;28;20020;-55
2022/11/05 05:55:02;;;;;;;3.40;2.80;;;5.70;99.90;;;;;;5071506;28;20025;-52
2022/11/05 05:57:28;;;;;;;2.33;2.22;;;5.70;99.90;;;;;;5071142;28;20032;-56
2022/11/05 05:59:53;;;;;;;4.20;2.72;;;5.60;99.90;;;;;;5070148;28;20055;-53
2022/11/05 06:02:19;;;;;;;4.05;2.60;;;5.60;99.90;;;;;;5071153;28;20048;-55
2022/11/05 06:04:45;;;;;;;3.42;3.10;;;5.50;99.90;;;;;;5071431;28;20048;-56
2022/11/05 06:07:10;;;;;;;5.15;3.95;;;5.50;99.90;;;;;;5069714;28;20043;-54
2022/11/05 06:09:36;;;;;;;3.38;3.10;;;5.40;99.90;;;;;;5070794;28;20048;-55
2022/11/05 06:12:02;;;;;;;2.80;2.60;;;5.40;99.90;;;;;;5071115;28;20025;-54
2022/11/05 06:14:27;;;;;;;6.82;3.75;;;5.40;99.90;;;;;;5071236;28;20452;-55
2022/11/05 06:16:53;;;;;;;3.95;3.65;;;5.50;99.90;;;;;;5069857;28;20040;-55
2022/11/05 06:19:20;;;;;;;3.60;3.30;;;5.60;99.90;;;;;;5070980;28;20479;-56
2022/11/05 06:21:45;;;;;;;7.65;3.90;;;5.70;99.90;;;;;;5069351;28;20031;-54
2022/11/05 06:24:11;;;;;;;3.25;2.58;;;5.80;99.90;;;;;;5071116;28;20078;-54
2022/11/05 06:26:41;;;;;;;2.70;2.50;;;5.90;99.90;;;;;;5074356;28;20587;-54
2022/11/05 06:29:08;;;;;;;5.25;2.78;;;5.90;99.90;;;;;;5074960;28;20047;-56
2022/11/05 06:31:34;;;;;;;3.28;3.03;;;6.00;99.90;;;;;;5074804;28;20029;-54
2022/11/05 06:33:59;;;;;;;3.75;3.00;;;6.00;99.90;;;;;;5074719;28;20012;-54
2022/11/05 06:36:25;;;;;;;5.05;3.03;;;6.10;99.90;;;;;;5074103;28;20035;-57
2022/11/05 06:38:51;;;;;;;2.65;2.45;;;6.10;99.90;;;;;;5073352;28;20475;-55
2022/11/05 06:41:16;;;;;;;7.63;3.22;;;6.20;99.90;;;;;;5074777;28;20063;-56
2022/11/05 06:43:42;;;;;;;88.45;35.13;;;6.20;99.90;;;;;;5074552;28;20111;-55
2022/11/05 06:46:10;;;;;;;68.13;30.88;;;6.30;99.90;;;;;;5074568;28;20028;-54
2022/11/05 06:48:36;;;;;;;21.50;12.05;;;6.30;99.90;;;;;;5074351;28;20042;-55
2022/11/05 06:51:02;;;;;;;16.05;7.68;;;6.40;99.90;;;;;;5074359;28;20123;-52
2022/11/05 06:53:28;;;;;;;9.18;6.65;;;6.40;99.90;;;;;;5074239;28;20028;-53
2022/11/05 06:55:54;;;;;;;5.85;5.25;;;6.50;99.90;;;;;;5074427;28;20024;-54
2022/11/05 06:58:20;;;;;;;4.45;4.00;;;6.60;99.90;;;;;;5074203;28;20025;-54
2022/11/05 07:00:46;;;;;;;8.27;3.85;;;6.50;99.90;;;;;;5074451;28;20040;-54
2022/11/05 07:03:12;;;;;;;11.88;8.75;;;6.60;99.90;;;;;;5074064;28;20058;-55
2022/11/05 07:05:41;;;;;;;9.40;8.48;;;6.60;99.90;;;;;;5073573;28;20060;-55
2022/11/05 07:08:07;;;;;;;6.75;3.05;;;6.60;99.90;;;;;;5074021;28;20052;-53
2022/11/05 07:10:32;;;;;;;42.22;19.92;;;6.60;99.90;;;;;;5074051;28;20024;-53
2022/11/05 07:12:58;;;;;;;28.95;16.20;;;6.60;99.90;;;;;;5074129;28;20419;-56
2022/11/05 07:15:29;;;;;;;16.60;9.07;;;6.70;99.90;;;;;;5074073;28;20059;-57
2022/11/05 07:18:00;;;;;;;5.13;4.22;;;6.80;99.90;;;;;;5074090;28;20031;-57
2022/11/05 07:20:30;;;;;;;8.27;5.05;;;6.90;99.90;;;;;;5073487;28;20554;-53
2022/11/05 07:23:09;;;;;;;4.65;4.18;;;6.80;99.90;;;;;;5073634;28;20543;-55
2022/11/05 07:25:35;;;;;;;3.67;3.35;;;6.80;99.90;;;;;;5073725;28;20028;-56
2022/11/05 07:28:01;;;;;;;7.22;3.60;;;6.80;99.90;;;;;;5073917;28;20586;-56
2022/11/05 07:30:27;;;;;;;5.43;4.68;;;6.80;99.90;;;;;;5073627;28;20028;-55
2022/11/05 07:32:53;;;;;;;5.03;4.47;;;6.80;99.90;;;;;;5073758;28;20033;-52
2022/11/05 07:35:19;;;;;;;6.00;4.95;;;6.80;99.90;;;;;;5073231;28;20027;-58
2022/11/05 07:37:46;;;;;;;5.95;4.82;;;6.90;99.90;;;;;;5071811;28;20380;-56
2022/11/05 07:40:14;;;;;;;7.20;4.97;;;6.90;99.90;;;;;;5072760;28;20036;-53
2022/11/05 07:42:44;;;;;;;9.32;5.30;;;6.90;99.90;;;;;;5072534;28;20075;-56
2022/11/05 07:45:11;;;;;;;6.43;3.90;;;6.90;99.90;;;;;;5073220;28;20103;-56
2022/11/05 07:47:38;;;;;;;5.47;3.97;;;7.10;99.90;;;;;;5072561;28;20033;-56
2022/11/05 07:50:04;;;;;;;4.55;3.88;;;7.10;99.90;;;;;;5072539;28;20127;-57
2022/11/05 07:52:32;;;;;;;5.40;3.97;;;7.00;99.90;;;;;;5072156;28;20056;-52
2022/11/05 07:54:58;;;;;;;5.18;4.22;;;7.10;99.90;;;;;;5073084;28;20043;-52
2022/11/05 07:57:24;;;;;;;6.65;5.38;;;7.10;99.90;;;;;;5072801;28;20020;-53
2022/11/05 07:59:49;;;;;;;7.70;5.95;;;7.20;99.90;;;;;;5072969;28;20467;-55
2022/11/05 08:02:15;;;;;;;4.60;3.92;;;7.20;99.90;;;;;;5072886;28;20104;-55
2022/11/05 08:04:41;;;;;;;7.07;5.78;;;7.10;99.90;;;;;;5073025;28;20111;-55
2022/11/05 08:07:07;;;;;;;14.10;4.82;;;7.20;99.90;;;;;;5073091;28;20097;-53
2022/11/05 08:09:33;;;;;;;7.75;4.43;;;7.20;99.90;;;;;;5072451;28;20153;-53
2022/11/05 08:11:59;;;;;;;18.33;11.70;;;7.20;99.90;;;;;;5072387;28;20033;-55
2022/11/05 08:14:24;;;;;;;9.15;5.68;;;7.10;99.90;;;;;;5072783;28;20463;-56
2022/11/05 08:16:50;;;;;;;10.23;6.00;;;7.10;99.90;;;;;;5072594;28;20024;-55
2022/11/05 08:19:16;;;;;;;5.68;4.03;;;7.10;99.90;;;;;;5072702;28;20531;-57
2022/11/05 08:21:41;;;;;;;6.85;4.80;;;7.10;99.90;;;;;;5072487;28;20085;-55
2022/11/05 08:24:07;;;;;;;5.80;5.00;;;7.10;99.90;;;;;;5072567;28;20067;-56
2022/11/05 08:26:33;;;;;;;7.20;5.65;;;7.20;99.90;;;;;;5072032;28;20036;-52
2022/11/05 08:28:59;;;;;;;9.93;6.28;;;7.20;99.90;;;;;;5071054;28;20105;-52
2022/11/05 08:31:25;;;;;;;3.80;3.42;;;7.20;99.90;;;;;;5072133;28;20058;-57
2022/11/05 08:33:51;;;;;;;5.00;4.13;;;7.40;99.90;;;;;;5072523;28;20029;-52
2022/11/05 08:36:16;;;;;;;7.22;5.22;;;7.40;99.90;;;;;;5071987;28;20031;-53
2022/11/05 08:38:42;;;;;;;7.72;4.30;;;7.40;99.90;;;;;;5070928;28;20024;-55
2022/11/05 08:41:08;;;;;;;16.52;11.50;;;7.50;99.90;;;;;;5070623;28;20029;-53
2022/11/05 08:43:33;;;;;;;7.05;5.00;;;7.40;99.90;;;;;;5069109;28;20082;-56
2022/11/05 08:46:00;;;;;;;5.82;4.78;;;7.40;99.90;;;;;;5070841;28;20025;-54
2022/11/05 08:48:26;;;;;;;5.43;3.95;;;7.30;99.90;;;;;;5070536;28;20468;-55
2022/11/05 08:50:51;;;;;;;9.07;4.60;;;7.50;99.90;;;;;;5070980;28;20020;-55
2022/11/05 08:53:17;;;;;;;7.47;5.25;;;7.50;99.90;;;;;;5070983;28;20483;-54
2022/11/05 08:55:45;;;;;;;4.88;4.38;;;7.50;99.90;;;;;;5069032;28;20483;-51
2022/11/05 08:58:14;;;;;;;4.68;4.25;;;7.60;99.90;;;;;;5068989;28;20106;-56
2022/11/05 09:00:40;;;;;;;5.30;4.35;;;7.60;99.90;;;;;;5069332;28;20025;-55
2022/11/05 09:03:07;;;;;;;5.90;4.45;;;7.70;99.90;;;;;;5068589;28;20020;-54
2022/11/05 09:05:38;;;;;;;5.65;4.22;;;7.80;99.90;;;;;;5068633;28;20017;-51
2022/11/05 09:08:08;;;;;;;4.88;4.05;;;7.90;99.90;;;;;;5069672;28;20052;-52
2022/11/05 09:10:34;;;;;;;5.20;4.70;;;8.00;99.90;;;;;;5068953;28;20119;-53
2022/11/05 09:13:00;;;;;;;6.70;3.95;;;8.10;99.90;;;;;;5070123;28;20364;-54
2022/11/05 09:15:28;;;;;;;5.80;4.25;;;8.20;99.90;;;;;;5069976;28;20024;-53
2022/11/05 09:17:54;;;;;;;5.85;4.68;;;8.10;99.90;;;;;;5069200;28;20051;-56
2022/11/05 09:20:20;;;;;;;5.70;5.10;;;8.20;99.90;;;;;;5070220;28;20020;-54
2022/11/05 09:22:46;;;;;;;6.78;5.13;;;8.10;99.90;;;;;;5069528;28;20020;-52
2022/11/05 09:25:14;;;;;;;6.78;5.07;;;8.30;99.90;;;;;;5070382;28;20091;-52
2022/11/05 09:27:39;;;;;;;7.30;5.05;;;8.40;99.90;;;;;;5070026;28;20126;-55
2022/11/05 09:30:05;;;;;;;5.50;5.00;;;8.30;99.90;;;;;;5070435;28;20112;-53
2022/11/05 09:32:32;;;;;;;6.47;5.63;;;8.30;99.90;;;;;;5070269;28;20082;-54
2022/11/05 09:34:59;;;;;;;6.35;4.78;;;8.40;99.90;;;;;;5070245;28;20024;-54
2022/11/05 09:37:26;;;;;;;7.63;5.55;;;8.30;99.90;;;;;;5070229;28;20497;-52
2022/11/05 09:39:52;;;;;;;6.97;5.13;;;8.00;99.90;;;;;;5070269;28;20024;-54
2022/11/05 09:42:27;;;;;;;7.00;4.78;;;8.10;99.90;;;;;;5069838;28;20054;-54
2022/11/05 09:45:00;;;;;;;6.50;4.88;;;8.10;99.90;;;;;;5070240;28;20054;-56
2022/11/05 09:47:31;;;;;;;17.42;6.60;;;8.10;99.90;;;;;;5070226;28;20024;-55
2022/11/05 09:49:59;;;;;;;9.40;6.00;;;8.10;99.90;;;;;;5070302;28;20052;-55
2022/11/05 09:52:28;;;;;;;7.90;5.53;;;8.00;99.90;;;;;;5070066;28;20415;-55
2022/11/05 09:54:55;;;;;;;10.65;5.68;;;8.10;99.90;;;;;;5070317;28;20111;-52
2022/11/05 09:57:27;;;;;;;9.35;5.88;;;8.30;99.90;;;;;;5069480;28;20035;-54
2022/11/05 10:00:00;;;;;;;5.97;5.38;;;8.30;99.90;;;;;;5070834;28;20028;-56
2022/11/05 10:02:40;;;;;;;10.80;6.50;;;8.30;99.90;;;;;;5074456;28;20021;-53
2022/11/05 10:05:09;;;;;;;11.05;6.25;;;8.30;99.90;;;;;;5074344;28;20021;-51
2022/11/05 10:07:45;;;;;;;9.23;5.88;;;8.30;99.90;;;;;;5072587;28;20028;-54
2022/11/05 10:10:33;;;;;;;10.88;5.80;;;8.50;99.90;;;;;;5074095;28;20024;-54
2022/11/05 10:13:05;;;;;;;14.15;6.22;;;8.50;99.90;;;;;;5073589;28;20058;-52
2022/11/05 10:15:36;;;;;;;10.73;7.38;;;8.70;99.90;;;;;;5073926;28;20055;-57
2022/11/05 10:18:28;;;;;;;7.80;5.72;;;8.80;99.90;;;;;;5073808;28;20472;-51
2022/11/05 10:20:55;;;;;;;6.15;5.55;;;8.90;99.90;;;;;;5060725;28;20036;-54
2022/11/05 10:23:22;;;;;;;7.05;5.43;;;8.90;99.90;;;;;;5073618;28;20376;-56
2022/11/05 10:25:56;;;;;;;8.80;4.97;;;9.10;99.90;;;;;;5073959;28;20021;-54
2022/11/05 10:28:26;;;;;;;7.35;5.18;;;9.30;99.90;;;;;;5073336;28;20090;-54
2022/11/05 10:31:00;;;;;;;10.20;5.22;;;9.30;99.90;;;;;;5073917;28;20017;-52
2022/11/05 10:33:38;;;;;;;7.15;5.25;;;9.30;99.90;;;;;;5073509;28;20108;-51
2022/11/05 10:36:08;;;;;;;8.82;5.03;;;9.40;99.90;;;;;;5073620;28;20013;-56
2022/11/05 10:38:34;;;;;;;7.57;5.05;;;9.50;99.90;;;;;;5073297;28;20021;-53
2022/11/05 10:41:19;;;;;;;8.73;5.55;;;9.70;99.90;;;;;;5073513;28;20119;-54
2022/11/05 10:44:05;;;;;;;20.33;5.75;;;9.70;99.90;;;;;;5053268;28;20108;-55
2022/11/05 10:46:49;;;;;;;8.63;6.32;;;9.80;99.90;;;;;;5051887;28;20033;-54
2022/11/05 10:49:53;;;;;;;13.73;7.10;;;9.50;99.90;;;;;;5052632;28;20031;-54
2022/11/05 10:52:23;;;;;;;9.48;6.57;;;9.50;99.90;;;;;;5053202;28;20020;-54
2022/11/05 10:54:53;;;;;;;6.32;5.70;;;9.60;99.90;;;;;;5053577;28;20076;-52
2022/11/05 10:57:34;;;;;;;9.05;5.90;;;9.80;99.90;;;;;;5064478;28;20282;-54
2022/11/05 11:00:15;;;;;;;8.15;6.68;;;9.90;99.90;;;;;;5073263;28;20043;-55
2022/11/05 11:03:08;;;;;;;9.23;6.03;;;9.60;99.90;;;;;;5072980;28;20028;-55
2022/11/05 11:05:39;;;;;;;9.90;6.13;;;9.80;99.90;;;;;;5072720;28;20008;-56
2022/11/05 11:08:22;;;;;;;12.63;6.20;;;9.90;99.90;;;;;;5072751;28;20048;-55
2022/11/05 11:10:51;;;;;;;7.53;5.50;;;10.10;99.90;;;;;;5072436;28;20029;-52
2022/11/05 11:13:21;;;;;;;8.27;6.30;;;9.80;99.90;;;;;;5071415;28;20062;-53
2022/11/05 11:15:49;;;;;;;9.20;6.43;;;9.80;99.90;;;;;;5072894;28;20074;-51
2022/11/05 11:18:36;;;;;;;8.23;7.35;;;9.80;99.90;;;;;;5072542;28;20027;-52
2022/11/05 11:21:16;;;;;;;14.38;7.10;;;9.90;99.90;;;;;;5072774;28;20024;-53
2022/11/05 11:23:51;;;;;;;8.57;6.97;;;10.00;99.90;;;;;;5071422;28;20027;-54
2022/11/05 11:26:17;;;;;;;12.88;8.32;;;10.10;99.90;;;;;;5072614;28;20399;-53
2022/11/05 11:28:47;;;;;;;9.80;5.72;;;10.00;99.90;;;;;;5072360;28;20028;-52
2022/11/05 11:31:32;;;;;;;7.40;5.93;;;11.20;99.90;;;;;;5072653;28;20394;-52
2022/11/05 11:34:11;;;;;;;20.13;11.98;;;13.10;99.90;;;;;;5072621;28;20032;-54
2022/11/05 11:36:47;;;;;;;6.93;5.80;;;14.60;99.90;;;;;;5070931;28;20101;-54
2022/11/05 11:39:19;;;;;;;16.63;8.07;;;14.40;99.90;;;;;;5071293;28;20028;-53
2022/11/05 11:41:52;;;;;;;27.40;15.90;;;15.50;98.10;;;;;;5072260;28;20017;-53
2022/11/05 11:44:25;;;;;;;10.40;6.95;;;15.40;96.70;;;;;;5072145;28;20487;-57
2022/11/05 11:46:54;;;;;;;16.25;8.27;;;14.30;97.70;;;;;;5072356;28;20032;-52
2022/11/05 11:49:45;;;;;;;17.65;10.00;;;13.80;99.60;;;;;;5071940;28;20024;-52
2022/11/05 11:52:15;;;;;;;22.83;13.18;;;13.20;99.90;;;;;;5072417;28;20060;-50
2022/11/05 11:54:41;;;;;;;8.43;6.30;;;12.80;99.90;;;;;;5072381;28;20032;-57
2022/11/05 11:57:24;;;;;;;29.98;16.48;;;12.10;99.90;;;;;;5071729;28;20071;-53
2022/11/05 11:59:51;;;;;;;18.00;12.13;;;12.00;99.90;;;;;;5072099;28;20483;-51
2022/11/05 12:02:54;;;;;;;23.67;11.40;;;11.90;99.90;;;;;;5071846;28;20021;-55
2022/11/05 12:05:31;;;;;;;7.78;6.97;;;11.70;99.90;;;;;;5071766;28;20024;-50
2022/11/05 12:08:09;;;;;;;8.43;5.45;;;11.70;99.90;;;;;;5071899;28;20483;-52
2022/11/05 12:11:00;;;;;;;13.43;6.45;;;11.80;99.90;;;;;;5071447;28;20024;-55
2022/11/05 12:13:49;;;;;;;5.75;5.18;;;11.80;99.90;;;;;;5049895;28;20040;-55
2022/11/05 12:16:53;;;;;;;15.40;5.63;;;11.90;99.90;;;;;;5071535;28;20032;-55
2022/11/05 12:19:51;;;;;;;5.10;4.53;;;11.90;99.90;;;;;;5063865;28;20115;-55
2022/11/05 12:22:27;;;;;;;5.97;4.47;;;13.30;99.90;;;;;;5071108;28;20487;-56
2022/11/05 12:25:42;;;;;;;26.27;5.05;;;14.00;99.90;;;;;;5072559;28;20031;-54
2022/11/05 12:28:32;;;;;;;3.47;3.15;;;14.80;99.80;;;;;;5029020;28;20528;-55
2022/11/05 12:31:30;;;;;;;11.57;4.40;;;15.90;97.30;;;;;;5010261;28;20246;-61
2022/11/05 12:33:55;;;;;;;7.78;3.92;;;15.00;97.40;;;;;;5049340;28;20033;-54
2022/11/05 12:36:53;;;;;;;11.80;4.32;;;14.70;98.10;;;;;;5052353;28;20032;-58
2022/11/05 12:39:53;;;;;;;4.78;4.22;;;14.00;99.90;;;;;;5052232;28;20025;-50
2022/11/05 12:42:32;;;;;;;16.50;5.38;;;13.50;99.90;;;;;;5052408;28;20025;-52
2022/11/05 12:45:14;;;;;;;11.52;5.15;;;12.40;99.90;;;;;;5069857;28;20104;-50
2022/11/05 12:47:57;;;;;;;11.93;5.55;;;12.50;99.90;;;;;;5060908;28;20467;-50
2022/11/05 12:50:45;;;;;;;4.57;4.13;;;12.30;99.90;;;;;;5071172;28;20020;-55
2022/11/05 12:53:30;;;;;;;5.53;4.50;;;12.80;99.90;;;;;;5070114;28;20032;-50
2022/11/05 12:56:00;;;;;;;7.38;4.15;;;13.10;99.90;;;;;;5071205;28;20029;-52
2022/11/05 12:58:35;;;;;;;8.45;4.55;;;13.40;99.90;;;;;;5070797;28;20028;-51
2022/11/05 13:01:13;;;;;;;10.85;5.35;;;13.50;99.90;;;;;;5070971;28;20047;-50
2022/11/05 13:04:07;;;;;;;4.28;3.88;;;15.20;98.30;;;;;;5090106;28;20020;-50
2022/11/05 13:06:39;;;;;;;5.88;3.90;;;15.50;96.80;;;;;;5090805;28;20592;-49
2022/11/05 13:09:18;;;;;;;4.53;4.18;;;15.70;97.20;;;;;;5091150;28;20126;-50
2022/11/05 13:11:51;;;;;;;7.18;5.25;;;15.30;98.00;;;;;;5091609;28;20420;-51
2022/11/05 13:14:19;;;;;;;9.30;4.10;;;15.30;97.00;;;;;;5090848;28;20043;-51
2022/11/05 13:17:19;;;;;;;4.68;4.22;;;15.70;96.00;;;;;;5091314;28;20046;-51
2022/11/05 13:20:02;;;;;;;3.58;3.28;;;15.60;96.20;;;;;;5073714;28;20036;-50
2022/11/05 13:22:37;;;;;;;6.22;4.57;;;16.50;94.90;;;;;;5091806;28;20024;-49
2022/11/05 13:25:18;;;;;;;10.80;5.35;;;15.90;95.30;;;;;;5091794;28;20114;-50
2022/11/05 13:27:50;;;;;;;6.70;5.35;;;15.00;97.00;;;;;;5091800;28;20494;-49
2022/11/05 13:30:23;;;;;;;5.03;4.55;;;13.90;98.20;;;;;;5074665;28;20123;-51
2022/11/05 13:32:58;;;;;;;6.30;5.70;;;13.10;99.90;;;;;;5071606;28;20377;-50
2022/11/05 13:35:29;;;;;;;6.80;5.53;;;12.50;99.90;;;;;;5071076;28;20128;-51
2022/11/05 13:41:10;;;;;;;6.78;5.95;;;11.90;99.90;;;;;;5054373;28;20040;-49
2022/11/05 13:43:56;;;;;;;9.10;6.10;;;11.60;99.90;;;;;;5021424;28;20729;-49
2022/11/05 13:47:00;;;;;;;7.13;6.38;;;11.50;99.90;;;;;;5026869;28;20377;-50
2022/11/05 13:50:20;;;;;;;6.13;5.60;;;11.50;99.90;;;;;;4993770;28;20131;-52
2022/11/05 13:53:04;;;;;;;7.07;5.97;;;11.60;99.90;;;;;;4996917;28;20053;-53
2022/11/05 13:55:55;;;;;;;10.27;6.93;;;11.60;99.90;;;;;;5024300;28;20464;-49
2022/11/05 13:58:33;;;;;;;6.15;5.55;;;11.50;99.90;;;;;;5017974;28;20063;-52
2022/11/05 14:01:36;;;;;;;12.60;7.90;;;12.00;99.90;;;;;;5020985;28;20104;-51
2022/11/05 14:04:03;;;;;;;6.67;5.67;;;12.30;99.90;;;;;;4939783;28;20030;-50
2022/11/05 14:06:32;;;;;;;6.80;5.97;;;11.70;99.90;;;;;;5008801;28;20534;-52